sensor_id;sensor_type;location;lat;lon;timestamp;temperature;humidity
21355;DHT22;10835;50.148;19.760;2023-03-03T00:01:08;16.70;41.70
21355;DHT22;10835;50.148;19.760;2023-03-03T00:03:36;16.70;41.70
21355;DHT22;10835;50.148;19.760;2023-03-03T00:06:05;16.60;41.70
21355;DHT22;10835;50.148;19.760;2023-03-03T00:08:35;16.50;41.70
21355;DHT22;10835;50.148;19.760;2023-03-03T00:11:06;16.10;42.20
21355;DHT22;10835;50.148;19.760;2023-03-03T00:13:43;15.60;42.30
21355;DHT22;10835;50.148;19.760;2023-03-03T00:16:15;15.90;43.10
21355;DHT22;10835;50.148;19.760;2023-03-03T00:18:47;15.60;42.80
21355;DHT22;10835;50.148;19.760;2023-03-03T00:21:31;15.70;43.80
21355;DHT22;10835;50.148;19.760;2023-03-03T00:24:24;15.20;43.30
21355;DHT22;10835;50.148;19.760;2023-03-03T00:26:55;15.20;43.60
21355;DHT22;10835;50.148;19.760;2023-03-03T00:29:33;15.80;44.20
21355;DHT22;10835;50.148;19.760;2023-03-03T00:32:20;16.00;43.30
21355;DHT22;10835;50.148;19.760;2023-03-03T00:34:51;16.20;42.80
21355;DHT22;10835;50.148;19.760;2023-03-03T00:37:26;15.70;42.90
21355;DHT22;10835;50.148;19.760;2023-03-03T00:42:53;16.00;43.20
21355;DHT22;10835;50.148;19.760;2023-03-03T00:45:30;16.00;42.70
21355;DHT22;10835;50.148;19.760;2023-03-03T00:48:10;16.20;42.10
21355;DHT22;10835;50.148;19.760;2023-03-03T00:50:43;16.40;42.30
21355;DHT22;10835;50.148;19.760;2023-03-03T00:53:13;16.20;42.20
21355;DHT22;10835;50.148;19.760;2023-03-03T00:55:44;16.00;42.30
21355;DHT22;10835;50.148;19.760;2023-03-03T00:58:13;16.10;42.60
21355;DHT22;10835;50.148;19.760;2023-03-03T01:00:47;15.50;42.60
21355;DHT22;10835;50.148;19.760;2023-03-03T01:03:19;15.90;43.90
21355;DHT22;10835;50.148;19.760;2023-03-03T01:05:48;16.10;42.90
21355;DHT22;10835;50.148;19.760;2023-03-03T01:08:17;16.00;43.20
21355;DHT22;10835;50.148;19.760;2023-03-03T01:10:48;16.00;43.00
21355;DHT22;10835;50.148;19.760;2023-03-03T01:13:18;15.90;43.10
21355;DHT22;10835;50.148;19.760;2023-03-03T01:15:49;16.00;42.70
21355;DHT22;10835;50.148;19.760;2023-03-03T01:18:18;15.90;42.50
21355;DHT22;10835;50.148;19.760;2023-03-03T01:20:46;16.10;43.20
21355;DHT22;10835;50.148;19.760;2023-03-03T01:23:15;15.90;42.70
21355;DHT22;10835;50.148;19.760;2023-03-03T01:25:43;16.20;42.80
21355;DHT22;10835;50.148;19.760;2023-03-03T01:28:11;16.40;42.50
21355;DHT22;10835;50.148;19.760;2023-03-03T01:30:39;16.50;41.80
21355;DHT22;10835;50.148;19.760;2023-03-03T01:33:09;16.60;42.10
21355;DHT22;10835;50.148;19.760;2023-03-03T01:35:41;16.60;41.90
21355;DHT22;10835;50.148;19.760;2023-03-03T01:38:10;16.50;41.60
21355;DHT22;10835;50.148;19.760;2023-03-03T01:40:39;16.40;41.90
21355;DHT22;10835;50.148;19.760;2023-03-03T01:43:13;15.60;42.10
21355;DHT22;10835;50.148;19.760;2023-03-03T01:48:54;16.00;43.20
21355;DHT22;10835;50.148;19.760;2023-03-03T01:51:31;16.20;42.50
21355;DHT22;10835;50.148;19.760;2023-03-03T01:54:02;15.90;42.20
21355;DHT22;10835;50.148;19.760;2023-03-03T01:56:31;16.20;42.70
21355;DHT22;10835;50.148;19.760;2023-03-03T01:59:02;16.30;42.30
21355;DHT22;10835;50.148;19.760;2023-03-03T02:01:33;16.40;41.60
21355;DHT22;10835;50.148;19.760;2023-03-03T02:04:03;16.40;41.80
21355;DHT22;10835;50.148;19.760;2023-03-03T02:06:34;16.60;41.30
21355;DHT22;10835;50.148;19.760;2023-03-03T02:09:06;16.90;40.50
21355;DHT22;10835;50.148;19.760;2023-03-03T02:11:37;16.60;40.50
21355;DHT22;10835;50.148;19.760;2023-03-03T02:14:07;16.60;40.90
21355;DHT22;10835;50.148;19.760;2023-03-03T02:16:38;16.80;40.40
21355;DHT22;10835;50.148;19.760;2023-03-03T02:19:16;16.80;40.20
21355;DHT22;10835;50.148;19.760;2023-03-03T02:21:49;16.70;40.70
21355;DHT22;10835;50.148;19.760;2023-03-03T02:24:25;16.80;40.60
21355;DHT22;10835;50.148;19.760;2023-03-03T02:26:55;16.60;40.20
21355;DHT22;10835;50.148;19.760;2023-03-03T02:29:25;15.80;41.40
21355;DHT22;10835;50.148;19.760;2023-03-03T02:31:53;16.30;41.40
21355;DHT22;10835;50.148;19.760;2023-03-03T02:34:21;16.20;41.20
21355;DHT22;10835;50.148;19.760;2023-03-03T02:36:51;16.10;41.40
21355;DHT22;10835;50.148;19.760;2023-03-03T02:39:21;16.30;41.40
21355;DHT22;10835;50.148;19.760;2023-03-03T02:41:52;16.10;41.20
21355;DHT22;10835;50.148;19.760;2023-03-03T02:44:30;16.20;41.60
21355;DHT22;10835;50.148;19.760;2023-03-03T02:46:59;16.30;41.90
21355;DHT22;10835;50.148;19.760;2023-03-03T02:49:30;16.00;41.50
21355;DHT22;10835;50.148;19.760;2023-03-03T02:51:59;16.10;41.40
21355;DHT22;10835;50.148;19.760;2023-03-03T02:54:29;16.40;41.50
21355;DHT22;10835;50.148;19.760;2023-03-03T02:56:59;16.30;41.10
21355;DHT22;10835;50.148;19.760;2023-03-03T02:59:29;16.20;41.10
21355;DHT22;10835;50.148;19.760;2023-03-03T03:02:04;16.50;41.40
21355;DHT22;10835;50.148;19.760;2023-03-03T03:04:34;15.90;40.90
21355;DHT22;10835;50.148;19.760;2023-03-03T03:07:03;15.80;41.80
21355;DHT22;10835;50.148;19.760;2023-03-03T03:09:34;16.10;41.90
21355;DHT22;10835;50.148;19.760;2023-03-03T03:12:04;16.10;41.50
21355;DHT22;10835;50.148;19.760;2023-03-03T03:14:35;16.10;41.20
21355;DHT22;10835;50.148;19.760;2023-03-03T03:17:05;15.90;41.20
21355;DHT22;10835;50.148;19.760;2023-03-03T03:19:33;15.70;41.60
21355;DHT22;10835;50.148;19.760;2023-03-03T03:22:02;15.70;41.80
21355;DHT22;10835;50.148;19.760;2023-03-03T03:24:33;15.50;42.00
21355;DHT22;10835;50.148;19.760;2023-03-03T03:27:04;15.50;42.20
21355;DHT22;10835;50.148;19.760;2023-03-03T03:29:35;15.50;42.20
21355;DHT22;10835;50.148;19.760;2023-03-03T03:32:04;15.80;41.70
21355;DHT22;10835;50.148;19.760;2023-03-03T03:34:33;15.90;41.40
21355;DHT22;10835;50.148;19.760;2023-03-03T03:37:03;15.90;41.60
21355;DHT22;10835;50.148;19.760;2023-03-03T03:39:31;15.60;41.40
21355;DHT22;10835;50.148;19.760;2023-03-03T03:42:00;15.10;41.80
21355;DHT22;10835;50.148;19.760;2023-03-03T03:44:28;15.40;42.50
21355;DHT22;10835;50.148;19.760;2023-03-03T03:46:58;15.50;42.20
21355;DHT22;10835;50.148;19.760;2023-03-03T03:49:26;15.40;42.20
21355;DHT22;10835;50.148;19.760;2023-03-03T03:51:57;15.50;41.80
21355;DHT22;10835;50.148;19.760;2023-03-03T03:54:29;15.70;41.20
21355;DHT22;10835;50.148;19.760;2023-03-03T03:56:57;15.70;41.40
21355;DHT22;10835;50.148;19.760;2023-03-03T03:59:26;15.80;41.20
21355;DHT22;10835;50.148;19.760;2023-03-03T04:01:55;16.00;41.20
21355;DHT22;10835;50.148;19.760;2023-03-03T04:04:26;16.20;41.10
21355;DHT22;10835;50.148;19.760;2023-03-03T04:06:54;16.00;40.90
21355;DHT22;10835;50.148;19.760;2023-03-03T04:09:23;16.00;40.50
21355;DHT22;10835;50.148;19.760;2023-03-03T04:11:51;16.20;40.20
21355;DHT22;10835;50.148;19.760;2023-03-03T04:14:19;16.30;39.70
21355;DHT22;10835;50.148;19.760;2023-03-03T04:16:48;16.30;39.40
21355;DHT22;10835;50.148;19.760;2023-03-03T04:19:16;16.30;39.90
21355;DHT22;10835;50.148;19.760;2023-03-03T04:21:46;16.30;39.80
21355;DHT22;10835;50.148;19.760;2023-03-03T04:24:14;16.50;40.30
21355;DHT22;10835;50.148;19.760;2023-03-03T04:26:43;16.40;40.00
21355;DHT22;10835;50.148;19.760;2023-03-03T04:29:11;16.30;40.40
21355;DHT22;10835;50.148;19.760;2023-03-03T04:31:42;16.20;40.10
21355;DHT22;10835;50.148;19.760;2023-03-03T04:34:11;15.90;40.10
21355;DHT22;10835;50.148;19.760;2023-03-03T04:36:41;15.90;40.90
21355;DHT22;10835;50.148;19.760;2023-03-03T04:39:11;16.00;40.20
21355;DHT22;10835;50.148;19.760;2023-03-03T04:41:40;16.00;40.00
21355;DHT22;10835;50.148;19.760;2023-03-03T04:44:08;16.00;39.80
21355;DHT22;10835;50.148;19.760;2023-03-03T04:46:37;16.20;39.40
21355;DHT22;10835;50.148;19.760;2023-03-03T04:49:05;16.30;40.00
21355;DHT22;10835;50.148;19.760;2023-03-03T04:51:37;16.40;40.00
21355;DHT22;10835;50.148;19.760;2023-03-03T04:54:05;16.30;39.40
21355;DHT22;10835;50.148;19.760;2023-03-03T04:56:36;16.10;39.40
21355;DHT22;10835;50.148;19.760;2023-03-03T04:59:04;16.20;39.30
21355;DHT22;10835;50.148;19.760;2023-03-03T05:01:32;16.20;39.30
21355;DHT22;10835;50.148;19.760;2023-03-03T05:04:02;16.20;39.40
21355;DHT22;10835;50.148;19.760;2023-03-03T05:06:30;15.60;39.50
21355;DHT22;10835;50.148;19.760;2023-03-03T05:08:58;15.60;40.50
21355;DHT22;10835;50.148;19.760;2023-03-03T05:11:26;15.80;39.80
21355;DHT22;10835;50.148;19.760;2023-03-03T05:13:56;15.80;39.50
21355;DHT22;10835;50.148;19.760;2023-03-03T05:16:24;15.80;39.60
21355;DHT22;10835;50.148;19.760;2023-03-03T05:18:53;15.40;39.90
21355;DHT22;10835;50.148;19.760;2023-03-03T05:21:21;15.70;40.10
21355;DHT22;10835;50.148;19.760;2023-03-03T05:23:49;15.90;39.80
21355;DHT22;10835;50.148;19.760;2023-03-03T05:26:18;15.80;40.00
21355;DHT22;10835;50.148;19.760;2023-03-03T05:28:46;16.00;39.40
21355;DHT22;10835;50.148;19.760;2023-03-03T05:31:16;15.90;39.20
21355;DHT22;10835;50.148;19.760;2023-03-03T05:33:44;15.50;39.60
21355;DHT22;10835;50.148;19.760;2023-03-03T05:36:12;15.50;40.50
21355;DHT22;10835;50.148;19.760;2023-03-03T05:38:41;15.60;39.80
21355;DHT22;10835;50.148;19.760;2023-03-03T05:41:09;15.40;40.00
21355;DHT22;10835;50.148;19.760;2023-03-03T05:43:37;15.20;40.70
21355;DHT22;10835;50.148;19.760;2023-03-03T05:46:05;15.50;40.70
21355;DHT22;10835;50.148;19.760;2023-03-03T05:48:35;15.80;41.00
21355;DHT22;10835;50.148;19.760;2023-03-03T05:51:03;15.40;40.60
21355;DHT22;10835;50.148;19.760;2023-03-03T05:53:32;14.90;41.50
21355;DHT22;10835;50.148;19.760;2023-03-03T05:56:00;14.60;42.10
21355;DHT22;10835;50.148;19.760;2023-03-03T05:58:28;15.20;43.00
21355;DHT22;10835;50.148;19.760;2023-03-03T06:00:57;15.60;42.80
21355;DHT22;10835;50.148;19.760;2023-03-03T06:03:25;15.90;42.40
21355;DHT22;10835;50.148;19.760;2023-03-03T06:05:55;16.20;42.00
21355;DHT22;10835;50.148;19.760;2023-03-03T06:08:23;16.40;41.40
21355;DHT22;10835;50.148;19.760;2023-03-03T06:10:51;16.50;41.40
21355;DHT22;10835;50.148;19.760;2023-03-03T06:13:20;16.70;41.10
21355;DHT22;10835;50.148;19.760;2023-03-03T06:15:48;17.00;41.10
21355;DHT22;10835;50.148;19.760;2023-03-03T06:18:16;16.90;40.90
21355;DHT22;10835;50.148;19.760;2023-03-03T06:20:49;17.10;41.00
21355;DHT22;10835;50.148;19.760;2023-03-03T06:23:19;17.30;40.60
21355;DHT22;10835;50.148;19.760;2023-03-03T06:25:47;17.10;40.70
21355;DHT22;10835;50.148;19.760;2023-03-03T06:28:15;17.00;41.20
21355;DHT22;10835;50.148;19.760;2023-03-03T06:30:43;17.10;41.20
21355;DHT22;10835;50.148;19.760;2023-03-03T06:33:12;17.30;41.50
21355;DHT22;10835;50.148;19.760;2023-03-03T06:35:48;17.30;40.90
21355;DHT22;10835;50.148;19.760;2023-03-03T06:38:19;17.50;41.00
21355;DHT22;10835;50.148;19.760;2023-03-03T06:40:49;17.50;41.10
21355;DHT22;10835;50.148;19.760;2023-03-03T06:43:17;17.50;40.80
21355;DHT22;10835;50.148;19.760;2023-03-03T06:45:46;17.40;40.30
21355;DHT22;10835;50.148;19.760;2023-03-03T06:48:14;17.30;40.90
21355;DHT22;10835;50.148;19.760;2023-03-03T06:50:42;17.50;40.80
21355;DHT22;10835;50.148;19.760;2023-03-03T06:53:15;16.60;40.70
21355;DHT22;10835;50.148;19.760;2023-03-03T06:55:45;16.50;42.40
21355;DHT22;10835;50.148;19.760;2023-03-03T06:58:15;16.80;42.00
21355;DHT22;10835;50.148;19.760;2023-03-03T07:00:45;16.90;42.10
21355;DHT22;10835;50.148;19.760;2023-03-03T07:03:18;16.70;42.00
21355;DHT22;10835;50.148;19.760;2023-03-03T07:05:48;17.00;41.70
21355;DHT22;10835;50.148;19.760;2023-03-03T07:08:19;17.10;42.30
21355;DHT22;10835;50.148;19.760;2023-03-03T07:10:50;17.10;41.30
21355;DHT22;10835;50.148;19.760;2023-03-03T07:13:20;17.20;41.30
21355;DHT22;10835;50.148;19.760;2023-03-03T07:15:51;17.30;41.40
21355;DHT22;10835;50.148;19.760;2023-03-03T07:18:34;17.10;42.10
21355;DHT22;10835;50.148;19.760;2023-03-03T07:21:15;17.40;41.80
21355;DHT22;10835;50.148;19.760;2023-03-03T07:23:44;17.70;41.40
21355;DHT22;10835;50.148;19.760;2023-03-03T07:26:16;17.50;41.70
21355;DHT22;10835;50.148;19.760;2023-03-03T07:28:52;17.50;41.70
21355;DHT22;10835;50.148;19.760;2023-03-03T07:31:28;18.00;41.60
21355;DHT22;10835;50.148;19.760;2023-03-03T07:33:59;17.30;41.70
21355;DHT22;10835;50.148;19.760;2023-03-03T07:36:29;18.00;42.20
21355;DHT22;10835;50.148;19.760;2023-03-03T07:38:59;18.00;41.80
21355;DHT22;10835;50.148;19.760;2023-03-03T07:41:29;17.30;41.50
21355;DHT22;10835;50.148;19.760;2023-03-03T07:44:03;17.90;43.00
21355;DHT22;10835;50.148;19.760;2023-03-03T07:46:36;17.50;42.20
21355;DHT22;10835;50.148;19.760;2023-03-03T07:49:20;17.10;42.00
21355;DHT22;10835;50.148;19.760;2023-03-03T07:51:53;17.00;42.90
21355;DHT22;10835;50.148;19.760;2023-03-03T07:54:29;16.40;43.40
21355;DHT22;10835;50.148;19.760;2023-03-03T07:57:11;16.20;44.50
21355;DHT22;10835;50.148;19.760;2023-03-03T07:59:44;16.00;44.90
21355;DHT22;10835;50.148;19.760;2023-03-03T08:02:34;16.40;45.30
21355;DHT22;10835;50.148;19.760;2023-03-03T08:05:32;16.60;45.00
21355;DHT22;10835;50.148;19.760;2023-03-03T08:08:18;16.40;44.50
21355;DHT22;10835;50.148;19.760;2023-03-03T08:10:50;16.60;44.50
21355;DHT22;10835;50.148;19.760;2023-03-03T08:13:22;16.60;44.60
21355;DHT22;10835;50.148;19.760;2023-03-03T08:15:59;16.40;44.90
21355;DHT22;10835;50.148;19.760;2023-03-03T08:18:34;15.40;46.00
21355;DHT22;10835;50.148;19.760;2023-03-03T08:21:05;15.30;47.00
21355;DHT22;10835;50.148;19.760;2023-03-03T08:23:35;15.10;47.10
21355;DHT22;10835;50.148;19.760;2023-03-03T08:26:04;14.70;47.50
21355;DHT22;10835;50.148;19.760;2023-03-03T08:28:33;14.40;48.40
21355;DHT22;10835;50.148;19.760;2023-03-03T08:31:02;14.50;48.50
21355;DHT22;10835;50.148;19.760;2023-03-03T08:33:46;14.70;49.50
21355;DHT22;10835;50.148;19.760;2023-03-03T08:36:14;14.50;48.30
21355;DHT22;10835;50.148;19.760;2023-03-03T08:38:45;14.30;48.50
21355;DHT22;10835;50.148;19.760;2023-03-03T08:41:13;13.80;49.90
21355;DHT22;10835;50.148;19.760;2023-03-03T08:43:43;14.10;49.90
21355;DHT22;10835;50.148;19.760;2023-03-03T08:46:11;14.20;49.70
21355;DHT22;10835;50.148;19.760;2023-03-03T08:48:39;14.10;50.00
21355;DHT22;10835;50.148;19.760;2023-03-03T08:51:08;14.20;50.00
21355;DHT22;10835;50.148;19.760;2023-03-03T08:53:36;13.90;50.30
21355;DHT22;10835;50.148;19.760;2023-03-03T08:56:05;13.60;50.90
21355;DHT22;10835;50.148;19.760;2023-03-03T08:58:33;13.20;51.80
21355;DHT22;10835;50.148;19.760;2023-03-03T09:01:04;13.20;52.50
21355;DHT22;10835;50.148;19.760;2023-03-03T09:03:32;13.20;52.50
21355;DHT22;10835;50.148;19.760;2023-03-03T09:06:00;12.90;53.10
21355;DHT22;10835;50.148;19.760;2023-03-03T09:08:28;13.00;53.20
21355;DHT22;10835;50.148;19.760;2023-03-03T09:10:57;12.90;53.60
21355;DHT22;10835;50.148;19.760;2023-03-03T09:13:26;12.90;53.70
21355;DHT22;10835;50.148;19.760;2023-03-03T09:15:56;12.50;54.10
21355;DHT22;10835;50.148;19.760;2023-03-03T09:18:30;12.40;55.00
21355;DHT22;10835;50.148;19.760;2023-03-03T09:20:59;13.00;54.80
21355;DHT22;10835;50.148;19.760;2023-03-03T09:23:33;13.00;54.10
21355;DHT22;10835;50.148;19.760;2023-03-03T09:26:22;13.30;53.70
21355;DHT22;10835;50.148;19.760;2023-03-03T09:28:53;12.90;54.00
21355;DHT22;10835;50.148;19.760;2023-03-03T09:31:25;13.00;54.30
21355;DHT22;10835;50.148;19.760;2023-03-03T09:33:55;12.90;54.50
21355;DHT22;10835;50.148;19.760;2023-03-03T09:36:27;12.90;55.20
21355;DHT22;10835;50.148;19.760;2023-03-03T09:38:56;13.10;54.40
21355;DHT22;10835;50.148;19.760;2023-03-03T09:44:52;12.70;54.70
21355;DHT22;10835;50.148;19.760;2023-03-03T09:47:38;12.50;55.10
21355;DHT22;10835;50.148;19.760;2023-03-03T09:50:20;12.60;55.10
21355;DHT22;10835;50.148;19.760;2023-03-03T09:53:01;12.60;55.10
21355;DHT22;10835;50.148;19.760;2023-03-03T09:55:43;12.60;54.50
21355;DHT22;10835;50.148;19.760;2023-03-03T09:58:26;12.40;55.10
21355;DHT22;10835;50.148;19.760;2023-03-03T10:01:09;13.10;55.00
21355;DHT22;10835;50.148;19.760;2023-03-03T10:04:12;14.30;53.00
21355;DHT22;10835;50.148;19.760;2023-03-03T10:06:47;14.20;51.60
21355;DHT22;10835;50.148;19.760;2023-03-03T10:09:41;15.50;50.50
21355;DHT22;10835;50.148;19.760;2023-03-03T10:12:18;14.70;50.00
21355;DHT22;10835;50.148;19.760;2023-03-03T10:15:14;15.50;48.80
21355;DHT22;10835;50.148;19.760;2023-03-03T10:17:49;16.00;47.70
21355;DHT22;10835;50.148;19.760;2023-03-03T10:20:37;16.80;45.50
21355;DHT22;10835;50.148;19.760;2023-03-03T10:23:26;16.40;45.30
21355;DHT22;10835;50.148;19.760;2023-03-03T10:26:05;16.40;45.70
21355;DHT22;10835;50.148;19.760;2023-03-03T10:29:00;16.40;45.00
21355;DHT22;10835;50.148;19.760;2023-03-03T10:31:40;16.70;45.30
21355;DHT22;10835;50.148;19.760;2023-03-03T10:34:25;16.40;45.20
21355;DHT22;10835;50.148;19.760;2023-03-03T10:37:02;16.70;44.90
21355;DHT22;10835;50.148;19.760;2023-03-03T10:39:46;16.80;44.70
21355;DHT22;10835;50.148;19.760;2023-03-03T10:42:24;16.70;43.90
21355;DHT22;10835;50.148;19.760;2023-03-03T10:48:28;16.90;44.70
21355;DHT22;10835;50.148;19.760;2023-03-03T10:51:10;17.50;43.20
21355;DHT22;10835;50.148;19.760;2023-03-03T10:53:51;15.30;45.30
21355;DHT22;10835;50.148;19.760;2023-03-03T10:56:34;15.60;46.20
21355;DHT22;10835;50.148;19.760;2023-03-03T10:59:33;16.10;45.70
21355;DHT22;10835;50.148;19.760;2023-03-03T11:02:09;16.30;44.40
21355;DHT22;10835;50.148;19.760;2023-03-03T11:05:01;15.60;45.80
21355;DHT22;10835;50.148;19.760;2023-03-03T11:07:38;16.30;45.30
21355;DHT22;10835;50.148;19.760;2023-03-03T11:10:20;16.80;44.00
21355;DHT22;10835;50.148;19.760;2023-03-03T11:13:01;16.30;44.00
21355;DHT22;10835;50.148;19.760;2023-03-03T11:15:44;16.00;44.10
21355;DHT22;10835;50.148;19.760;2023-03-03T11:18:23;15.90;44.80
21355;DHT22;10835;50.148;19.760;2023-03-03T11:21:01;16.10;44.30
21355;DHT22;10835;50.148;19.760;2023-03-03T11:23:56;15.00;45.60
21355;DHT22;10835;50.148;19.760;2023-03-03T11:26:41;15.50;45.80
21355;DHT22;10835;50.148;19.760;2023-03-03T11:29:22;14.90;46.00
21355;DHT22;10835;50.148;19.760;2023-03-03T11:31:55;14.00;47.20
21355;DHT22;10835;50.148;19.760;2023-03-03T11:34:43;14.10;48.30
21355;DHT22;10835;50.148;19.760;2023-03-03T11:37:20;14.40;48.20
21355;DHT22;10835;50.148;19.760;2023-03-03T11:39:52;15.10;46.50
21355;DHT22;10835;50.148;19.760;2023-03-03T11:42:25;14.10;46.70
21355;DHT22;10835;50.148;19.760;2023-03-03T11:45:00;13.40;48.90
21355;DHT22;10835;50.148;19.760;2023-03-03T11:47:33;13.10;49.90
21355;DHT22;10835;50.148;19.760;2023-03-03T11:50:12;12.60;51.40
21355;DHT22;10835;50.148;19.760;2023-03-03T11:52:47;13.10;50.70
21355;DHT22;10835;50.148;19.760;2023-03-03T11:55:24;13.40;50.30
21355;DHT22;10835;50.148;19.760;2023-03-03T11:58:02;14.20;50.10
21355;DHT22;10835;50.148;19.760;2023-03-03T12:00:40;13.60;48.70
21355;DHT22;10835;50.148;19.760;2023-03-03T12:03:15;12.60;50.60
21355;DHT22;10835;50.148;19.760;2023-03-03T12:05:54;12.30;51.90
21355;DHT22;10835;50.148;19.760;2023-03-03T12:08:38;12.00;53.10
21355;DHT22;10835;50.148;19.760;2023-03-03T12:11:15;11.60;53.10
21355;DHT22;10835;50.148;19.760;2023-03-03T12:13:53;11.90;53.20
21355;DHT22;10835;50.148;19.760;2023-03-03T12:16:37;12.10;52.50
21355;DHT22;10835;50.148;19.760;2023-03-03T12:19:21;11.80;52.40
21355;DHT22;10835;50.148;19.760;2023-03-03T12:22:08;12.10;52.40
21355;DHT22;10835;50.148;19.760;2023-03-03T12:24:56;12.20;52.40
21355;DHT22;10835;50.148;19.760;2023-03-03T12:27:34;12.70;51.50
21355;DHT22;10835;50.148;19.760;2023-03-03T12:30:11;12.30;51.90
21355;DHT22;10835;50.148;19.760;2023-03-03T12:33:04;12.20;52.00
21355;DHT22;10835;50.148;19.760;2023-03-03T12:35:38;12.10;51.80
21355;DHT22;10835;50.148;19.760;2023-03-03T12:38:16;12.30;51.40
21355;DHT22;10835;50.148;19.760;2023-03-03T12:40:56;12.70;51.40
21355;DHT22;10835;50.148;19.760;2023-03-03T12:43:37;13.20;50.50
21355;DHT22;10835;50.148;19.760;2023-03-03T12:46:14;14.40;48.50
21355;DHT22;10835;50.148;19.760;2023-03-03T12:48:47;14.10;47.60
21355;DHT22;10835;50.148;19.760;2023-03-03T12:51:27;13.90;47.90
21355;DHT22;10835;50.148;19.760;2023-03-03T12:54:09;13.80;48.50
21355;DHT22;10835;50.148;19.760;2023-03-03T12:56:43;12.80;49.30
21355;DHT22;10835;50.148;19.760;2023-03-03T12:59:18;12.40;50.60
21355;DHT22;10835;50.148;19.760;2023-03-03T13:02:12;12.10;51.10
21355;DHT22;10835;50.148;19.760;2023-03-03T13:04:50;12.00;51.40
21355;DHT22;10835;50.148;19.760;2023-03-03T13:07:24;12.00;51.30
21355;DHT22;10835;50.148;19.760;2023-03-03T13:10:04;12.10;51.30
21355;DHT22;10835;50.148;19.760;2023-03-03T13:12:38;11.70;52.20
21355;DHT22;10835;50.148;19.760;2023-03-03T13:15:14;11.90;52.20
21355;DHT22;10835;50.148;19.760;2023-03-03T13:17:50;12.30;51.60
21355;DHT22;10835;50.148;19.760;2023-03-03T13:20:31;12.20;50.90
21355;DHT22;10835;50.148;19.760;2023-03-03T13:23:06;11.80;51.70
21355;DHT22;10835;50.148;19.760;2023-03-03T13:25:44;11.80;51.90
21355;DHT22;10835;50.148;19.760;2023-03-03T13:28:22;11.80;52.10
21355;DHT22;10835;50.148;19.760;2023-03-03T13:30:56;11.50;52.80
21355;DHT22;10835;50.148;19.760;2023-03-03T13:33:26;11.30;53.30
21355;DHT22;10835;50.148;19.760;2023-03-03T13:35:59;11.60;52.80
21355;DHT22;10835;50.148;19.760;2023-03-03T13:38:30;11.50;52.60
21355;DHT22;10835;50.148;19.760;2023-03-03T13:41:04;11.40;52.70
21355;DHT22;10835;50.148;19.760;2023-03-03T13:43:40;11.30;52.70
21355;DHT22;10835;50.148;19.760;2023-03-03T13:46:15;11.20;52.90
21355;DHT22;10835;50.148;19.760;2023-03-03T13:52:04;11.60;52.10
21355;DHT22;10835;50.148;19.760;2023-03-03T13:54:57;11.30;52.70
21355;DHT22;10835;50.148;19.760;2023-03-03T13:57:44;11.90;51.80
21355;DHT22;10835;50.148;19.760;2023-03-03T14:00:24;12.30;51.20
21355;DHT22;10835;50.148;19.760;2023-03-03T14:03:06;12.40;50.50
21355;DHT22;10835;50.148;19.760;2023-03-03T14:05:37;12.30;49.70
21355;DHT22;10835;50.148;19.760;2023-03-03T14:08:16;11.90;50.40
21355;DHT22;10835;50.148;19.760;2023-03-03T14:10:55;12.00;50.20
21355;DHT22;10835;50.148;19.760;2023-03-03T14:13:29;12.10;50.60
21355;DHT22;10835;50.148;19.760;2023-03-03T14:16:04;12.00;51.00
21355;DHT22;10835;50.148;19.760;2023-03-03T14:18:37;12.30;50.30
21355;DHT22;10835;50.148;19.760;2023-03-03T14:21:10;11.90;50.50
21355;DHT22;10835;50.148;19.760;2023-03-03T14:23:49;12.00;50.30
21355;DHT22;10835;50.148;19.760;2023-03-03T14:26:18;12.10;50.50
21355;DHT22;10835;50.148;19.760;2023-03-03T14:28:48;12.60;50.10
21355;DHT22;10835;50.148;19.760;2023-03-03T14:31:22;12.90;49.50
21355;DHT22;10835;50.148;19.760;2023-03-03T14:33:57;13.30;48.40
21355;DHT22;10835;50.148;19.760;2023-03-03T14:36:29;12.90;48.20
21355;DHT22;10835;50.148;19.760;2023-03-03T14:39:00;13.00;48.50
21355;DHT22;10835;50.148;19.760;2023-03-03T14:41:38;13.20;48.70
21355;DHT22;10835;50.148;19.760;2023-03-03T14:44:31;13.20;48.10
21355;DHT22;10835;50.148;19.760;2023-03-03T14:47:19;13.50;48.00
21355;DHT22;10835;50.148;19.760;2023-03-03T14:49:48;13.80;49.00
21355;DHT22;10835;50.148;19.760;2023-03-03T14:52:23;13.70;47.50
21355;DHT22;10835;50.148;19.760;2023-03-03T14:54:55;13.20;47.70
21355;DHT22;10835;50.148;19.760;2023-03-03T14:57:38;12.50;49.00
21355;DHT22;10835;50.148;19.760;2023-03-03T15:00:28;11.70;50.10
21355;DHT22;10835;50.148;19.760;2023-03-03T15:03:02;11.00;51.90
21355;DHT22;10835;50.148;19.760;2023-03-03T15:05:31;10.90;52.50
21355;DHT22;10835;50.148;19.760;2023-03-03T15:08:08;11.40;52.30
21355;DHT22;10835;50.148;19.760;2023-03-03T15:10:39;11.40;52.00
21355;DHT22;10835;50.148;19.760;2023-03-03T15:13:30;11.10;52.10
21355;DHT22;10835;50.148;19.760;2023-03-03T15:16:09;11.30;52.50
21355;DHT22;10835;50.148;19.760;2023-03-03T15:19:08;11.10;52.10
21355;DHT22;10835;50.148;19.760;2023-03-03T15:21:45;11.00;52.60
21355;DHT22;10835;50.148;19.760;2023-03-03T15:24:19;11.90;51.70
21355;DHT22;10835;50.148;19.760;2023-03-03T15:26:55;12.00;50.40
21355;DHT22;10835;50.148;19.760;2023-03-03T15:29:30;11.70;50.50
21355;DHT22;10835;50.148;19.760;2023-03-03T15:32:05;11.00;51.40
21355;DHT22;10835;50.148;19.760;2023-03-03T15:34:39;10.70;52.50
21355;DHT22;10835;50.148;19.760;2023-03-03T15:37:23;10.40;53.30
21355;DHT22;10835;50.148;19.760;2023-03-03T15:40:02;10.50;53.40
21355;DHT22;10835;50.148;19.760;2023-03-03T15:42:38;10.40;53.30
21355;DHT22;10835;50.148;19.760;2023-03-03T15:45:17;9.90;53.90
21355;DHT22;10835;50.148;19.760;2023-03-03T15:47:59;10.80;53.90
21355;DHT22;10835;50.148;19.760;2023-03-03T15:50:42;10.60;52.50
21355;DHT22;10835;50.148;19.760;2023-03-03T15:53:26;11.00;52.60
21355;DHT22;10835;50.148;19.760;2023-03-03T15:56:12;10.80;51.70
21355;DHT22;10835;50.148;19.760;2023-03-03T15:59:05;10.80;52.10
21355;DHT22;10835;50.148;19.760;2023-03-03T16:01:41;11.90;51.50
21355;DHT22;10835;50.148;19.760;2023-03-03T16:04:13;12.50;50.20
21355;DHT22;10835;50.148;19.760;2023-03-03T16:06:47;13.00;48.60
21355;DHT22;10835;50.148;19.760;2023-03-03T16:09:27;13.90;47.90
21355;DHT22;10835;50.148;19.760;2023-03-03T16:12:02;14.10;46.60
21355;DHT22;10835;50.148;19.760;2023-03-03T16:14:55;14.40;45.70